createdAt,value
2022-10-01T00:00:23.602Z,75.13
2022-10-01T00:03:17.280Z,75.18
2022-10-01T00:06:01.162Z,75.17
2022-10-01T00:08:35.016Z,75.15
2022-10-01T00:11:16.372Z,75.19
2022-10-01T00:13:49.644Z,75.32
2022-10-01T00:16:27.908Z,75.51
2022-10-01T00:19:01.771Z,75.49
2022-10-01T00:21:35.685Z,75.50
2022-10-01T00:24:09.104Z,75.40
2022-10-01T00:26:42.208Z,75.38
2022-10-01T00:29:18.323Z,75.55
2022-10-01T00:31:51.365Z,75.45
2022-10-01T00:34:24.395Z,75.60
2022-10-01T00:36:57.184Z,75.52
2022-10-01T00:39:29.676Z,75.48
2022-10-01T00:42:03.044Z,75.47
2022-10-01T00:44:41.668Z,75.51
2022-10-01T00:47:42.658Z,75.40
2022-10-01T00:50:27.356Z,75.58
2022-10-01T00:53:09.060Z,75.64
2022-10-01T00:55:52.254Z,75.60
2022-10-01T00:58:26.727Z,75.71
2022-10-01T01:01:00.435Z,75.83
2022-10-01T01:03:33.480Z,75.73
2022-10-01T01:06:08.597Z,75.83
2022-10-01T01:08:43.428Z,75.68
2022-10-01T01:11:29.769Z,75.78
2022-10-01T01:14:37.127Z,75.90
2022-10-01T01:17:21.171Z,75.90
2022-10-01T01:20:14.316Z,75.89
2022-10-01T01:23:01.990Z,75.83
2022-10-01T01:25:47.878Z,75.85
2022-10-01T01:28:47.067Z,75.79
2022-10-01T01:31:26.457Z,76.10
2022-10-01T01:34:02.647Z,76.01
2022-10-01T01:36:38.635Z,75.93
2022-10-01T01:39:14.685Z,75.91
2022-10-01T01:41:55.482Z,75.96
2022-10-01T01:44:35.327Z,75.95
2022-10-01T01:47:11.249Z,75.89
2022-10-01T01:49:45.385Z,75.90
2022-10-01T01:52:19.173Z,75.95
2022-10-01T01:54:53.648Z,76.36
2022-10-01T01:57:27.078Z,76.10
2022-10-01T01:59:59.989Z,76.93
2022-10-01T02:02:38.508Z,76.49
2022-10-01T02:05:19.592Z,76.43
2022-10-01T02:08:28.179Z,76.77
2022-10-01T02:11:00.585Z,76.38
2022-10-01T02:14:00.679Z,76.07
2022-10-01T02:17:02.463Z,76.48
2022-10-01T02:20:01.917Z,76.34
2022-10-01T02:22:58.880Z,76.38
2022-10-01T02:25:39.582Z,76.27
2022-10-01T02:28:18.115Z,76.24
2022-10-01T02:30:53.742Z,76.23
2022-10-01T02:33:32.589Z,78.55
2022-10-01T02:36:10.421Z,78.48
2022-10-01T02:38:45.768Z,77.40
2022-10-01T02:41:23.700Z,77.01
2022-10-01T02:44:00.622Z,76.99
2022-10-01T02:46:43.919Z,78.30
2022-10-01T02:49:30.847Z,79.27
2022-10-01T02:52:26.416Z,77.98
2022-10-01T02:55:15.841Z,78.72
2022-10-01T02:57:48.806Z,80.03
2022-10-01T03:00:27.646Z,79.56
2022-10-01T03:03:00.880Z,78.52
2022-10-01T03:05:34.318Z,78.75
2022-10-01T03:08:07.150Z,78.60
2022-10-01T03:10:44.628Z,78.13
2022-10-01T03:13:22.454Z,78.12
2022-10-01T03:15:55.153Z,77.88
2022-10-01T03:18:28.272Z,78.03
2022-10-01T03:21:00.926Z,78.09
2022-10-01T03:23:33.637Z,77.89
2022-10-01T03:26:06.353Z,77.79
2022-10-01T03:28:39.822Z,77.83
2022-10-01T03:31:13.381Z,77.75
2022-10-01T03:33:47.025Z,77.58
2022-10-01T03:36:20.056Z,77.58
2022-10-01T03:38:52.778Z,77.65
2022-10-01T03:41:25.751Z,77.69
2022-10-01T03:44:00.705Z,77.65
2022-10-01T03:46:34.638Z,77.59
2022-10-01T03:49:07.618Z,77.61
2022-10-01T03:51:40.817Z,77.54
2022-10-01T03:54:13.595Z,77.64
2022-10-01T03:56:46.837Z,77.57
2022-10-01T03:59:20.452Z,77.77
2022-10-01T04:01:53.593Z,77.75
2022-10-01T04:04:26.708Z,77.81
2022-10-01T04:06:59.994Z,77.89
2022-10-01T04:09:33.077Z,78.32
2022-10-01T04:12:06.368Z,78.27
2022-10-01T04:14:39.836Z,78.24
2022-10-01T04:17:13.587Z,78.69
2022-10-01T04:19:46.843Z,78.92
2022-10-01T04:22:19.759Z,81.16
2022-10-01T04:24:54.204Z,79.81
2022-10-01T04:27:27.222Z,79.66
2022-10-01T04:30:00.639Z,79.87
2022-10-01T04:32:33.789Z,79.23
2022-10-01T04:35:11.457Z,79.04
2022-10-01T04:37:44.160Z,78.83
2022-10-01T04:40:17.375Z,78.72
2022-10-01T04:42:50.619Z,78.88
2022-10-01T04:45:23.669Z,78.64
2022-10-01T04:47:58.812Z,78.67
2022-10-01T04:50:31.870Z,78.52
2022-10-01T04:53:04.946Z,78.46
2022-10-01T04:55:38.371Z,78.28
2022-10-01T04:58:11.448Z,78.19
2022-10-01T05:00:44.731Z,78.12
2022-10-01T05:03:18.877Z,78.48
2022-10-01T05:05:52.013Z,78.34
2022-10-01T05:08:24.993Z,78.34
2022-10-01T05:11:00.923Z,78.09
2022-10-01T05:13:33.953Z,77.88
2022-10-01T05:16:07.096Z,77.81
2022-10-01T05:18:40.896Z,77.70
2022-10-01T05:21:16.030Z,77.58
2022-10-01T05:23:49.303Z,77.38
2022-10-01T05:26:22.286Z,77.12
2022-10-01T05:28:55.599Z,76.92
2022-10-01T05:31:29.511Z,76.73
2022-10-01T05:34:02.753Z,76.61
2022-10-01T05:36:36.110Z,76.39
2022-10-01T05:39:12.272Z,76.18
2022-10-01T05:41:47.232Z,75.95
2022-10-01T05:44:20.370Z,75.65
2022-10-01T05:46:54.156Z,75.42
2022-10-01T05:49:27.226Z,75.06
2022-10-01T05:52:01.553Z,74.82
2022-10-01T05:54:34.927Z,74.52
2022-10-01T05:57:08.892Z,74.22
2022-10-01T05:59:44.924Z,73.97
2022-10-01T06:02:21.316Z,73.41
2022-10-01T06:04:54.797Z,73.40
2022-10-01T06:07:28.042Z,73.04
2022-10-01T06:10:01.176Z,73.07
2022-10-01T06:12:34.652Z,72.84
2022-10-01T06:15:07.689Z,72.90
2022-10-01T06:17:45.533Z,72.85
2022-10-01T06:20:21.080Z,72.82
2022-10-01T06:22:59.787Z,72.67
2022-10-01T06:25:33.505Z,72.62
2022-10-01T06:28:07.104Z,72.53
2022-10-01T06:30:41.107Z,72.60
2022-10-01T06:33:18.921Z,72.55
2022-10-01T06:35:55.283Z,72.51
2022-10-01T06:38:28.426Z,72.57
2022-10-01T06:41:07.080Z,72.60
2022-10-01T06:43:40.133Z,72.48
2022-10-01T06:46:14.764Z,72.18
2022-10-01T06:48:48.275Z,72.12
2022-10-01T06:51:41.740Z,71.90
2022-10-01T06:54:15.574Z,71.74
2022-10-01T06:56:48.658Z,70.61
2022-10-01T06:59:22.278Z,70.75
2022-10-01T07:01:56.565Z,70.88
2022-10-01T07:04:30.305Z,70.70
2022-10-01T07:07:03.434Z,70.17
2022-10-01T07:09:37.092Z,69.71
2022-10-01T07:12:12.224Z,68.68
2022-10-01T07:14:45.266Z,69.31
2022-10-01T07:17:22.887Z,69.34
2022-10-01T07:19:56.831Z,69.02
2022-10-01T07:22:31.268Z,68.33
2022-10-01T07:25:05.256Z,67.18
2022-10-01T07:27:39.341Z,67.69
2022-10-01T07:30:13.834Z,67.31
2022-10-01T07:32:47.789Z,67.22
2022-10-01T07:35:23.954Z,67.17
2022-10-01T07:37:57.076Z,66.73
2022-10-01T07:40:32.191Z,66.26
2022-10-01T07:43:10.900Z,65.14
2022-10-01T07:45:44.745Z,65.01
2022-10-01T07:48:18.684Z,66.09
2022-10-01T07:50:52.871Z,65.72
2022-10-01T07:53:27.927Z,64.86
2022-10-01T07:56:05.638Z,65.47
2022-10-01T07:58:39.124Z,65.39
2022-10-01T08:01:13.014Z,64.64
2022-10-01T08:03:55.643Z,65.18
2022-10-01T08:06:29.073Z,64.88
2022-10-01T08:09:02.561Z,63.69
2022-10-01T08:11:38.656Z,64.42
2022-10-01T08:14:12.934Z,64.21
2022-10-01T08:16:48.302Z,63.94
2022-10-01T08:19:22.179Z,64.25
2022-10-01T08:21:59.099Z,64.35
2022-10-01T08:24:35.225Z,64.07
2022-10-01T08:27:12.231Z,63.84
2022-10-01T08:29:51.542Z,63.55
2022-10-01T08:32:29.227Z,63.85
2022-10-01T08:35:04.923Z,64.18
2022-10-01T08:37:41.481Z,63.72
2022-10-01T08:40:18.289Z,61.90
2022-10-01T08:42:58.219Z,63.09
2022-10-01T08:45:49.394Z,63.08
2022-10-01T08:48:45.230Z,62.60
2022-10-01T08:51:44.585Z,62.29
2022-10-01T08:54:38.278Z,60.87
2022-10-01T08:57:22.021Z,61.28
2022-10-01T09:00:01.895Z,61.48
2022-10-01T09:02:37.830Z,60.69
2022-10-01T09:05:27.081Z,59.26
2022-10-01T09:08:01.971Z,59.56
2022-10-01T09:10:49.945Z,58.06
2022-10-01T09:13:49.440Z,57.88
2022-10-01T09:16:34.843Z,58.82
2022-10-01T09:19:46.078Z,58.96
2022-10-01T09:22:53.504Z,58.26
2022-10-01T09:25:30.870Z,57.56
2022-10-01T09:28:29.746Z,57.81
2022-10-01T09:31:16.280Z,57.80
2022-10-01T09:34:12.879Z,57.46
2022-10-01T09:37:15.570Z,57.62
2022-10-01T09:40:05.625Z,57.19
2022-10-01T09:42:38.773Z,56.32
2022-10-01T09:45:22.577Z,55.57
2022-10-01T09:48:00.644Z,55.76
2022-10-01T09:50:50.900Z,53.68
2022-10-01T09:53:29.852Z,54.68
2022-10-01T09:56:10.855Z,55.35
2022-10-01T09:58:49.816Z,54.97
2022-10-01T10:01:47.407Z,54.37
2022-10-01T10:04:27.659Z,54.38
2022-10-01T10:07:09.439Z,54.10
2022-10-01T10:09:43.774Z,54.06
2022-10-01T10:12:34.198Z,53.95
2022-10-01T10:15:20.107Z,54.01
2022-10-01T10:17:55.255Z,53.79
2022-10-01T10:20:42.376Z,52.33
2022-10-01T10:23:32.149Z,52.63
2022-10-01T10:26:08.190Z,52.79
2022-10-01T10:28:48.768Z,52.85
2022-10-01T10:31:28.279Z,53.04
2022-10-01T10:34:11.908Z,52.86
2022-10-01T10:36:47.732Z,52.45
2022-10-01T10:39:25.409Z,51.98
2022-10-01T10:42:00.746Z,52.42
2022-10-01T10:44:37.822Z,52.60
2022-10-01T10:47:15.493Z,52.31
2022-10-01T10:49:58.325Z,52.18
2022-10-01T10:52:36.768Z,52.05
2022-10-01T10:55:31.571Z,51.73
2022-10-01T10:58:26.643Z,51.32
2022-10-01T11:01:03.498Z,51.34
2022-10-01T11:03:38.541Z,50.83
2022-10-01T11:06:18.877Z,50.20
2022-10-01T11:09:00.352Z,49.47
2022-10-01T11:11:53.885Z,48.71
2022-10-01T11:14:35.720Z,48.52
2022-10-01T11:17:31.901Z,48.17
2022-10-01T11:20:22.636Z,47.58
2022-10-01T11:23:04.051Z,46.79
2022-10-01T11:25:50.953Z,44.85
2022-10-01T11:28:48.099Z,46.19
2022-10-01T11:31:50.283Z,45.86
2022-10-01T11:34:41.032Z,45.80
2022-10-01T11:37:16.119Z,45.08
2022-10-01T11:39:53.438Z,44.16
2022-10-01T11:42:35.368Z,44.14
2022-10-01T11:45:32.360Z,43.77
2022-10-01T11:48:34.163Z,44.32
2022-10-01T11:51:14.108Z,42.97
2022-10-01T11:54:02.423Z,41.52
2022-10-01T11:57:14.270Z,41.86
2022-10-01T11:59:47.387Z,43.59
2022-10-01T12:02:44.909Z,43.77
2022-10-01T12:05:27.624Z,43.49
2022-10-01T12:08:24.598Z,42.52
2022-10-01T12:11:13.841Z,42.49
2022-10-01T12:13:55.805Z,42.32
2022-10-01T12:16:46.310Z,41.68
2022-10-01T12:19:32.475Z,41.27
2022-10-01T12:22:16.162Z,40.76
2022-10-01T12:24:50.323Z,41.61
2022-10-01T12:27:45.440Z,40.75
2022-10-01T12:30:30.210Z,41.07
2022-10-01T12:33:29.233Z,40.49
2022-10-01T12:36:31.652Z,41.06
2022-10-01T12:39:18.997Z,41.39
2022-10-01T12:42:33.861Z,41.64
2022-10-01T12:45:06.453Z,41.81
2022-10-01T12:48:00.338Z,41.63
2022-10-01T12:50:47.823Z,41.72
2022-10-01T12:53:39.493Z,41.74
2022-10-01T12:56:17.982Z,41.23
2022-10-01T12:59:15.249Z,41.46
2022-10-01T13:02:14.109Z,41.17
2022-10-01T13:05:20.734Z,41.45
2022-10-01T13:08:31.429Z,41.37
2022-10-01T13:11:12.718Z,41.47
2022-10-01T13:13:45.855Z,41.44
2022-10-01T13:16:54.856Z,41.47
2022-10-01T13:19:54.133Z,41.45
2022-10-01T13:22:50.433Z,41.17
2022-10-01T13:25:45.442Z,41.20
2022-10-01T13:28:42.499Z,41.32
2022-10-01T13:31:21.013Z,41.54
2022-10-01T13:34:01.973Z,41.56
2022-10-01T13:36:37.865Z,41.69
2022-10-01T13:39:30.039Z,41.71
2022-10-01T13:42:01.989Z,42.02
2022-10-01T13:44:35.933Z,42.32
2022-10-01T13:47:14.073Z,42.18
2022-10-01T13:49:54.959Z,42.06
2022-10-01T13:52:27.737Z,42.46
2022-10-01T13:55:03.262Z,42.37
2022-10-01T13:57:40.895Z,42.64
2022-10-01T14:00:18.629Z,42.51
2022-10-01T14:03:28.121Z,42.64
2022-10-01T14:06:03.569Z,43.05
2022-10-01T14:08:52.871Z,43.16
2022-10-01T14:11:47.193Z,43.22
2022-10-01T14:14:53.023Z,43.32
2022-10-01T14:17:30.098Z,43.68
2022-10-01T14:20:04.486Z,44.17
2022-10-01T14:22:59.375Z,44.45
2022-10-01T14:25:39.967Z,45.15
2022-10-01T14:28:24.209Z,45.85
2022-10-01T14:31:11.711Z,46.51
2022-10-01T14:33:55.524Z,47.21
2022-10-01T14:36:47.612Z,47.69
2022-10-01T14:39:28.327Z,48.03
2022-10-01T14:42:16.594Z,48.31
2022-10-01T14:44:51.664Z,48.85
2022-10-01T14:47:28.315Z,49.41
2022-10-01T14:50:13.396Z,49.68
2022-10-01T14:52:55.784Z,49.96
2022-10-01T14:55:29.578Z,50.92
2022-10-01T14:58:03.122Z,51.53
2022-10-01T15:00:36.243Z,51.82
2022-10-01T15:03:16.198Z,51.79
2022-10-01T15:05:51.130Z,52.94
2022-10-01T15:08:26.176Z,52.73
2022-10-01T15:11:06.971Z,52.42
2022-10-01T15:13:43.206Z,52.57
2022-10-01T15:16:27.808Z,52.43
2022-10-01T15:19:08.821Z,52.66
2022-10-01T15:21:57.066Z,53.14
2022-10-01T15:24:49.610Z,53.75
2022-10-01T15:27:21.758Z,54.01
2022-10-01T15:29:59.320Z,53.77
2022-10-01T15:32:32.960Z,54.92
2022-10-01T15:35:06.478Z,54.69
2022-10-01T15:37:44.788Z,54.91
2022-10-01T15:40:37.103Z,55.14
2022-10-01T15:43:10.061Z,55.24
2022-10-01T15:45:46.470Z,55.60
2022-10-01T15:48:34.648Z,55.96
2022-10-01T15:51:28.851Z,55.76
2022-10-01T15:54:16.244Z,55.72
2022-10-01T15:56:51.159Z,55.56
2022-10-01T15:59:25.905Z,55.67
2022-10-01T16:02:00.147Z,55.85
2022-10-01T16:04:33.659Z,56.19
2022-10-01T16:07:09.415Z,56.41
2022-10-01T16:09:58.224Z,56.49
2022-10-01T16:12:32.042Z,56.74
2022-10-01T16:15:08.214Z,56.94
2022-10-01T16:17:41.845Z,57.06
2022-10-01T16:20:18.248Z,57.22
2022-10-01T16:22:51.541Z,57.79
2022-10-01T16:25:26.348Z,58.41
2022-10-01T16:28:22.740Z,58.30
2022-10-01T16:30:59.227Z,58.33
2022-10-01T16:33:32.981Z,58.48
2022-10-01T16:36:20.698Z,58.77
2022-10-01T16:38:54.563Z,59.52
2022-10-01T16:41:34.363Z,60.23
2022-10-01T16:44:08.949Z,60.44
2022-10-01T16:46:42.835Z,60.12
2022-10-01T16:49:19.356Z,59.91
2022-10-01T16:51:57.674Z,59.85
2022-10-01T16:54:32.631Z,59.72
2022-10-01T16:57:07.339Z,58.91
2022-10-01T16:59:43.613Z,56.87
2022-10-01T17:02:20.839Z,57.45
2022-10-01T17:04:54.264Z,57.50
2022-10-01T17:07:30.343Z,57.48
2022-10-01T17:10:04.850Z,57.39
2022-10-01T17:12:40.808Z,57.26
2022-10-01T17:15:17.998Z,57.25
2022-10-01T17:17:51.447Z,57.27
2022-10-01T17:20:25.606Z,57.33
2022-10-01T17:22:59.843Z,57.45
2022-10-01T17:25:36.373Z,57.03
2022-10-01T17:28:14.130Z,56.30
2022-10-01T17:30:49.187Z,56.33
2022-10-01T17:33:29.464Z,55.87
2022-10-01T17:36:08.066Z,55.31
2022-10-01T17:38:42.105Z,55.33
2022-10-01T17:41:15.318Z,53.97
2022-10-01T17:43:49.420Z,53.90
2022-10-01T17:46:23.893Z,54.39
2022-10-01T17:48:57.190Z,54.94
2022-10-01T17:51:32.063Z,54.86
2022-10-01T17:54:05.534Z,54.31
2022-10-01T17:56:39.664Z,54.22
2022-10-01T17:59:13.920Z,54.25
2022-10-01T18:01:47.421Z,54.47
2022-10-01T18:04:20.563Z,54.78
2022-10-01T18:06:59.656Z,54.89
2022-10-01T18:09:33.893Z,54.86
2022-10-01T18:12:07.457Z,54.98
2022-10-01T18:14:40.862Z,55.02
2022-10-01T18:17:14.569Z,55.09
2022-10-01T18:19:55.029Z,55.17
2022-10-01T18:22:29.072Z,55.19
2022-10-01T18:25:04.154Z,55.30
2022-10-01T18:27:42.569Z,54.78
2022-10-01T18:30:16.628Z,54.57
2022-10-01T18:32:58.110Z,53.96
2022-10-01T18:35:35.036Z,54.03
2022-10-01T18:38:22.432Z,53.84
2022-10-01T18:41:06.329Z,53.84
2022-10-01T18:43:43.126Z,54.30
2022-10-01T18:46:35.440Z,54.50
2022-10-01T18:49:39.705Z,54.50
2022-10-01T18:52:39.247Z,54.65
2022-10-01T18:55:43.867Z,54.75
2022-10-01T18:58:41.095Z,54.95
2022-10-01T19:01:20.976Z,55.04
2022-10-01T19:04:03.523Z,55.20
2022-10-01T19:07:02.647Z,55.20
2022-10-01T19:10:02.374Z,55.27
2022-10-01T19:12:57.224Z,55.87
2022-10-01T19:15:47.713Z,56.09
2022-10-01T19:18:26.215Z,56.08
2022-10-01T19:21:04.605Z,56.12
2022-10-01T19:23:57.615Z,56.62
2022-10-01T19:26:43.861Z,57.06
2022-10-01T19:29:44.284Z,57.19
2022-10-01T19:32:28.465Z,57.23
2022-10-01T19:35:22.037Z,57.49
2022-10-01T19:38:03.578Z,57.31
2022-10-01T19:40:45.246Z,57.34
2022-10-01T19:43:44.072Z,57.33
2022-10-01T19:46:42.636Z,57.36
2022-10-01T19:49:28.580Z,57.16
2022-10-01T19:52:04.647Z,57.10
2022-10-01T19:54:43.723Z,57.08
2022-10-01T19:57:27.708Z,57.11
2022-10-01T20:00:23.445Z,57.06
2022-10-01T20:03:13.217Z,57.05
2022-10-01T20:06:07.379Z,57.16
2022-10-01T20:09:11.872Z,57.18
2022-10-01T20:12:06.943Z,57.10
2022-10-01T20:14:59.133Z,57.05
2022-10-01T20:18:00.051Z,57.12
2022-10-01T20:20:40.031Z,57.14
2022-10-01T20:23:45.239Z,57.03
2022-10-01T20:26:42.289Z,56.99
2022-10-01T20:29:50.306Z,56.98
2022-10-01T20:32:42.102Z,57.09
2022-10-01T20:35:24.353Z,57.09
2022-10-01T20:38:15.521Z,57.47
2022-10-01T20:40:53.136Z,57.67
2022-10-01T20:43:45.088Z,57.59
2022-10-01T20:46:49.084Z,57.60
2022-10-01T20:49:48.278Z,57.45
2022-10-01T20:52:40.351Z,57.54
2022-10-01T20:55:19.235Z,57.82
2022-10-01T20:58:04.572Z,57.97
2022-10-01T21:00:49.339Z,58.38
2022-10-01T21:03:52.794Z,58.49
2022-10-01T21:06:36.850Z,58.25
2022-10-01T21:09:29.535Z,58.18
2022-10-01T21:12:26.636Z,58.19
2022-10-01T21:15:04.916Z,58.30
2022-10-01T21:17:58.691Z,58.22
2022-10-01T21:20:43.571Z,58.34
2022-10-01T21:23:37.021Z,58.19
2022-10-01T21:26:51.393Z,58.23
2022-10-01T21:29:37.645Z,58.22
2022-10-01T21:32:50.281Z,58.16
2022-10-01T21:35:36.903Z,58.12
2022-10-01T21:38:27.371Z,58.05
2022-10-01T21:41:10.530Z,57.92
2022-10-01T21:44:19.207Z,57.94
2022-10-01T21:47:17.769Z,57.94
2022-10-01T21:50:27.267Z,58.00
2022-10-01T21:53:11.524Z,58.02
2022-10-01T21:55:59.626Z,58.04
2022-10-01T21:59:07.153Z,58.07
2022-10-01T22:02:11.942Z,58.08
2022-10-01T22:05:12.163Z,58.58
2022-10-01T22:07:52.184Z,58.98
2022-10-01T22:10:41.299Z,59.46
2022-10-01T22:13:27.749Z,59.42
2022-10-01T22:16:13.292Z,59.33
2022-10-01T22:18:52.143Z,59.39
2022-10-01T22:21:42.864Z,59.80
2022-10-01T22:24:32.019Z,59.75
2022-10-01T22:27:17.547Z,59.83
2022-10-01T22:30:03.449Z,60.05
2022-10-01T22:33:06.856Z,60.39
2022-10-01T22:35:54.722Z,60.45
2022-10-01T22:38:36.158Z,60.50
2022-10-01T22:41:30.761Z,60.64
2022-10-01T22:44:16.146Z,60.72
2022-10-01T22:47:11.944Z,61.08
2022-10-01T22:50:02.423Z,60.74
2022-10-01T22:53:09.252Z,60.84
2022-10-01T22:56:02.519Z,60.87
2022-10-01T22:58:47.499Z,61.11
2022-10-01T23:01:44.237Z,60.94
2022-10-01T23:04:56.264Z,61.08
2022-10-01T23:07:28.997Z,61.32
2022-10-01T23:10:11.977Z,62.03
2022-10-01T23:13:40.422Z,61.75
2022-10-01T23:19:45.054Z,61.23
2022-10-01T23:22:47.013Z,61.49
2022-10-01T23:25:48.260Z,61.60
2022-10-01T23:28:46.261Z,61.62
2022-10-01T23:31:51.976Z,61.75
2022-10-01T23:34:55.853Z,62.30
2022-10-01T23:37:58.484Z,62.45
2022-10-01T23:40:44.803Z,62.60
2022-10-01T23:43:54.521Z,62.65
2022-10-01T23:46:32.597Z,62.66
2022-10-01T23:49:11.699Z,62.76
2022-10-01T23:52:10.121Z,62.91
2022-10-01T23:54:52.559Z,63.18
2022-10-01T23:57:45.491Z,63.30
